Etihad Airways Virtual Airport Information Service

Riyadh King Khalid International Airport

ICAO: OERK Country: Saudi Arabia
Latitude: 24.9576 Longitude: 46.6988
Latest Arrival : ETD317 (OMAA-OERK) Latest Departure : OMA684 (OERK-OOMS)


WX CaptureLIVE
Data provided by noaa.gov | Recorded at 07:15:36

METAR : OERK 150700Z 03013KT CAVOK 25/00 Q1019 NOSIG

TAF : OERK 150500Z 1506/1612 03017KT 7000 SCT040 TEMPO 1506/1512 4000 BLDU PROB30 TEMPO 1512/1518 FEW030CB BECMG 1516/1518 01007KT 9999 FEW040 BECMG 1606/1608 11005KT TEMPO 1604/1612 TS FEW030CB SCT100


Runway Data for OERK
Data provided by openaviationdata.com

Runway ID Mag Var Hdg Length Elevation Surface ILS Freq ILS Id ILS Slope

Riyadh King Khalid International Airport, Saudi Arabia
Use only for reference purposes